createdAt,value
2023-03-28T00:04:17.395Z,80.85
2023-03-28T00:14:38.905Z,81.15
2023-03-28T00:25:00.424Z,82.70
2023-03-28T00:35:22.101Z,82.43
2023-03-28T00:45:43.578Z,83.41
2023-03-28T00:56:07.251Z,83.09
2023-03-28T01:06:32.827Z,83.58
2023-03-28T01:16:56.374Z,84.48
2023-03-28T01:27:26.837Z,85.26
2023-03-28T01:37:54.347Z,86.17
2023-03-28T01:48:15.665Z,86.08
2023-03-28T01:58:46.447Z,85.75
2023-03-28T02:09:09.752Z,86.31
2023-03-28T02:19:33.793Z,86.36
2023-03-28T02:29:55.502Z,86.27
2023-03-28T02:40:19.840Z,87.71
2023-03-28T02:50:59.944Z,86.50
2023-03-28T03:01:22.049Z,86.55
2023-03-28T03:11:43.415Z,88.29
2023-03-28T03:22:04.773Z,86.99
2023-03-28T03:32:26.361Z,87.69
2023-03-28T03:42:47.689Z,86.06
2023-03-28T03:53:09.073Z,87.31
2023-03-28T04:03:30.549Z,85.57
2023-03-28T04:13:52.151Z,85.54
2023-03-28T04:24:15.649Z,85.42
2023-03-28T04:34:39.053Z,86.17
2023-03-28T04:45:00.551Z,85.65
2023-03-28T04:55:21.905Z,85.96
2023-03-28T05:05:43.263Z,85.66
2023-03-28T05:16:05.138Z,85.83
2023-03-28T05:26:28.004Z,85.81
2023-03-28T05:36:51.055Z,84.94
2023-03-28T05:47:12.471Z,84.34
2023-03-28T05:57:34.561Z,84.61
2023-03-28T06:07:55.929Z,85.63
2023-03-28T06:18:17.444Z,84.78
2023-03-28T06:28:38.815Z,84.66
2023-03-28T06:39:01.518Z,83.39
2023-03-28T06:49:22.906Z,81.96
2023-03-28T06:59:44.267Z,82.20
2023-03-28T07:10:06.066Z,80.55
2023-03-28T07:20:27.709Z,79.75
2023-03-28T07:30:49.108Z,78.69
2023-03-28T07:41:10.850Z,78.53
2023-03-28T07:51:32.219Z,77.66
2023-03-28T08:01:53.585Z,77.03
2023-03-28T08:12:14.978Z,77.08
2023-03-28T08:22:36.584Z,75.15
2023-03-28T08:32:58.043Z,74.17
2023-03-28T08:43:31.734Z,72.16
2023-03-28T08:54:01.326Z,71.27
2023-03-28T09:04:31.809Z,68.29
2023-03-28T09:15:12.056Z,68.12
2023-03-28T09:25:42.638Z,66.03
2023-03-28T09:36:09.723Z,62.57
2023-03-28T09:46:39.404Z,62.07
2023-03-28T09:57:02.453Z,60.42
2023-03-28T10:07:29.845Z,62.03
2023-03-28T10:17:51.258Z,61.41
2023-03-28T10:28:18.040Z,64.88
2023-03-28T10:38:43.228Z,60.92
2023-03-28T10:49:13.533Z,63.55
2023-03-28T10:59:53.714Z,62.28
2023-03-28T11:10:18.148Z,64.93
2023-03-28T11:20:45.824Z,61.93
2023-03-28T11:31:12.278Z,63.49
2023-03-28T11:41:36.098Z,61.57
2023-03-28T11:52:01.200Z,60.62
2023-03-28T12:02:43.942Z,61.58
2023-03-28T12:13:14.796Z,60.36
2023-03-28T12:23:37.970Z,62.83
2023-03-28T12:34:07.923Z,64.32
2023-03-28T12:44:39.921Z,64.14
2023-03-28T12:55:02.712Z,58.86
2023-03-28T13:05:27.148Z,61.98
2023-03-28T13:15:54.050Z,63.31
2023-03-28T13:26:15.598Z,63.39
2023-03-28T13:36:37.048Z,62.79
2023-03-28T13:46:58.591Z,60.73
2023-03-28T13:57:21.151Z,59.09
2023-03-28T14:07:42.720Z,59.37
2023-03-28T14:18:04.216Z,58.28
2023-03-28T14:28:27.911Z,57.59
2023-03-28T14:38:49.278Z,61.28
2023-03-28T14:49:18.126Z,61.21
2023-03-28T14:59:44.927Z,57.81
2023-03-28T15:10:21.144Z,58.96
2023-03-28T15:20:44.117Z,58.67
2023-03-28T15:31:05.629Z,58.39
2023-03-28T15:41:41.016Z,60.41
2023-03-28T15:52:05.002Z,58.07
2023-03-28T16:02:26.718Z,58.49
2023-03-28T16:12:48.472Z,56.56
2023-03-28T16:23:11.019Z,59.74
2023-03-28T16:33:32.446Z,57.43
2023-03-28T16:43:54.213Z,56.52
2023-03-28T16:54:15.643Z,59.32
2023-03-28T17:04:37.021Z,61.35
2023-03-28T17:14:58.388Z,58.25
2023-03-28T17:25:19.789Z,59.75
2023-03-28T17:35:41.282Z,59.30
2023-03-28T17:46:03.072Z,60.42
2023-03-28T17:56:25.636Z,56.86
2023-03-28T18:06:47.061Z,56.49
2023-03-28T18:17:08.451Z,61.98
2023-03-28T18:27:29.816Z,62.95
2023-03-28T18:37:51.829Z,64.72
2023-03-28T18:48:14.108Z,58.07
2023-03-28T18:58:38.871Z,58.52
2023-03-28T19:09:00.216Z,63.72
2023-03-28T19:19:22.484Z,63.36
2023-03-28T19:29:43.880Z,63.46
2023-03-28T19:40:09.414Z,61.76
2023-03-28T19:50:33.441Z,61.73
2023-03-28T20:00:55.771Z,64.39
2023-03-28T20:11:17.454Z,67.50
2023-03-28T20:21:38.896Z,67.20
2023-03-28T20:32:00.663Z,66.86
2023-03-28T20:42:22.151Z,66.38
2023-03-28T20:52:43.500Z,66.17
2023-03-28T21:03:04.945Z,67.11
2023-03-28T21:13:27.039Z,67.75
2023-03-28T21:23:48.816Z,66.48
2023-03-28T21:34:10.255Z,68.02
2023-03-28T21:44:32.065Z,69.64
2023-03-28T21:54:54.655Z,70.03
2023-03-28T22:05:28.716Z,71.13
2023-03-28T22:15:52.484Z,70.43
2023-03-28T22:26:14.286Z,69.02
2023-03-28T22:36:35.953Z,66.11
2023-03-28T22:47:02.348Z,67.06
2023-03-28T22:57:23.797Z,67.52
2023-03-28T23:07:45.319Z,68.24
2023-03-28T23:18:07.931Z,69.42
2023-03-28T23:28:29.349Z,68.38
2023-03-28T23:38:51.055Z,69.04
2023-03-28T23:49:12.411Z,70.12
2023-03-28T23:59:33.977Z,69.10
